sensor_id;sensor_type;location;lat;lon;timestamp;temperature;humidity
9919;DHT22;4998;51.024;13.828;2023-05-14T00:02:13;17.00;69.10
9919;DHT22;4998;51.024;13.828;2023-05-14T00:04:40;17.00;69.10
9919;DHT22;4998;51.024;13.828;2023-05-14T00:07:08;17.00;69.30
9919;DHT22;4998;51.024;13.828;2023-05-14T00:09:35;17.00;69.60
9919;DHT22;4998;51.024;13.828;2023-05-14T00:12:02;17.00;69.60
9919;DHT22;4998;51.024;13.828;2023-05-14T00:14:29;17.00;69.60
9919;DHT22;4998;51.024;13.828;2023-05-14T00:16:56;17.00;69.90
9919;DHT22;4998;51.024;13.828;2023-05-14T00:19:24;16.90;70.00
9919;DHT22;4998;51.024;13.828;2023-05-14T00:21:51;16.90;70.10
9919;DHT22;4998;51.024;13.828;2023-05-14T00:24:19;16.90;70.20
9919;DHT22;4998;51.024;13.828;2023-05-14T00:26:46;16.90;70.60
9919;DHT22;4998;51.024;13.828;2023-05-14T00:29:13;16.90;70.40
9919;DHT22;4998;51.024;13.828;2023-05-14T00:31:40;17.00;70.60
9919;DHT22;4998;51.024;13.828;2023-05-14T00:34:07;17.00;70.70
9919;DHT22;4998;51.024;13.828;2023-05-14T00:36:34;17.00;70.70
9919;DHT22;4998;51.024;13.828;2023-05-14T00:39:01;17.00;70.80
9919;DHT22;4998;51.024;13.828;2023-05-14T00:41:29;17.00;70.80
9919;DHT22;4998;51.024;13.828;2023-05-14T00:43:56;17.00;72.00
9919;DHT22;4998;51.024;13.828;2023-05-14T00:46:23;17.00;71.00
9919;DHT22;4998;51.024;13.828;2023-05-14T00:48:51;17.00;71.10
9919;DHT22;4998;51.024;13.828;2023-05-14T00:51:18;17.00;71.30
9919;DHT22;4998;51.024;13.828;2023-05-14T00:53:45;17.00;71.30
9919;DHT22;4998;51.024;13.828;2023-05-14T00:56:13;17.00;71.40
9919;DHT22;4998;51.024;13.828;2023-05-14T00:58:42;17.00;71.50
9919;DHT22;4998;51.024;13.828;2023-05-14T01:01:09;17.00;71.80
9919;DHT22;4998;51.024;13.828;2023-05-14T01:03:39;16.90;71.70
9919;DHT22;4998;51.024;13.828;2023-05-14T01:06:10;16.90;72.80
9919;DHT22;4998;51.024;13.828;2023-05-14T01:08:48;17.00;72.40
9919;DHT22;4998;51.024;13.828;2023-05-14T01:11:19;16.90;72.60
9919;DHT22;4998;51.024;13.828;2023-05-14T01:13:54;16.90;72.60
9919;DHT22;4998;51.024;13.828;2023-05-14T01:16:26;16.90;72.70
9919;DHT22;4998;51.024;13.828;2023-05-14T01:18:55;16.90;72.70
9919;DHT22;4998;51.024;13.828;2023-05-14T01:21:36;16.90;72.80
9919;DHT22;4998;51.024;13.828;2023-05-14T01:24:06;16.80;73.00
9919;DHT22;4998;51.024;13.828;2023-05-14T01:26:33;16.80;72.60
9919;DHT22;4998;51.024;13.828;2023-05-14T01:29:04;16.80;72.80
9919;DHT22;4998;51.024;13.828;2023-05-14T01:31:37;16.80;73.20
9919;DHT22;4998;51.024;13.828;2023-05-14T01:34:07;16.70;73.20
9919;DHT22;4998;51.024;13.828;2023-05-14T01:36:36;16.70;73.60
9919;DHT22;4998;51.024;13.828;2023-05-14T01:39:05;16.70;73.70
9919;DHT22;4998;51.024;13.828;2023-05-14T01:41:34;16.70;73.80
9919;DHT22;4998;51.024;13.828;2023-05-14T01:44:02;16.70;74.00
9919;DHT22;4998;51.024;13.828;2023-05-14T01:46:30;16.70;74.10
9919;DHT22;4998;51.024;13.828;2023-05-14T01:48:57;16.70;74.20
9919;DHT22;4998;51.024;13.828;2023-05-14T01:51:24;16.70;74.10
9919;DHT22;4998;51.024;13.828;2023-05-14T01:53:53;16.70;74.20
9919;DHT22;4998;51.024;13.828;2023-05-14T01:56:21;16.70;74.50
9919;DHT22;4998;51.024;13.828;2023-05-14T01:58:48;16.70;74.50
9919;DHT22;4998;51.024;13.828;2023-05-14T02:01:15;16.70;74.60
9919;DHT22;4998;51.024;13.828;2023-05-14T02:03:42;16.70;75.40
9919;DHT22;4998;51.024;13.828;2023-05-14T02:06:09;16.70;74.60
9919;DHT22;4998;51.024;13.828;2023-05-14T02:08:37;16.70;74.60
9919;DHT22;4998;51.024;13.828;2023-05-14T02:11:05;16.60;74.50
9919;DHT22;4998;51.024;13.828;2023-05-14T02:13:32;16.60;74.70
9919;DHT22;4998;51.024;13.828;2023-05-14T02:15:59;16.60;74.60
9919;DHT22;4998;51.024;13.828;2023-05-14T02:18:26;16.50;74.70
9919;DHT22;4998;51.024;13.828;2023-05-14T02:20:53;16.50;74.70
9919;DHT22;4998;51.024;13.828;2023-05-14T02:23:20;16.50;74.90
9919;DHT22;4998;51.024;13.828;2023-05-14T02:25:47;16.40;74.90
9919;DHT22;4998;51.024;13.828;2023-05-14T02:28:15;16.40;75.00
9919;DHT22;4998;51.024;13.828;2023-05-14T02:30:42;16.40;75.30
9919;DHT22;4998;51.024;13.828;2023-05-14T02:33:09;16.30;75.20
9919;DHT22;4998;51.024;13.828;2023-05-14T02:35:36;16.30;75.30
9919;DHT22;4998;51.024;13.828;2023-05-14T02:38:03;16.20;75.30
9919;DHT22;4998;51.024;13.828;2023-05-14T02:40:31;16.20;75.40
9919;DHT22;4998;51.024;13.828;2023-05-14T02:42:58;16.20;75.60
9919;DHT22;4998;51.024;13.828;2023-05-14T02:45:26;16.10;75.60
9919;DHT22;4998;51.024;13.828;2023-05-14T02:47:53;16.10;75.90
9919;DHT22;4998;51.024;13.828;2023-05-14T02:50:20;16.00;75.70
9919;DHT22;4998;51.024;13.828;2023-05-14T02:52:47;16.00;75.80
9919;DHT22;4998;51.024;13.828;2023-05-14T02:55:14;16.00;75.80
9919;DHT22;4998;51.024;13.828;2023-05-14T02:57:41;15.90;75.90
9919;DHT22;4998;51.024;13.828;2023-05-14T03:00:09;15.90;76.10
9919;DHT22;4998;51.024;13.828;2023-05-14T03:02:37;15.90;76.40
9919;DHT22;4998;51.024;13.828;2023-05-14T03:05:05;15.80;76.60
9919;DHT22;4998;51.024;13.828;2023-05-14T03:07:32;15.80;76.60
9919;DHT22;4998;51.024;13.828;2023-05-14T03:09:59;15.70;76.60
9919;DHT22;4998;51.024;13.828;2023-05-14T03:12:26;15.70;76.80
9919;DHT22;4998;51.024;13.828;2023-05-14T03:14:53;15.70;76.80
9919;DHT22;4998;51.024;13.828;2023-05-14T03:17:20;15.70;77.00
9919;DHT22;4998;51.024;13.828;2023-05-14T03:19:48;15.70;77.10
9919;DHT22;4998;51.024;13.828;2023-05-14T03:22:15;15.60;77.30
9919;DHT22;4998;51.024;13.828;2023-05-14T03:24:42;15.60;77.30
9919;DHT22;4998;51.024;13.828;2023-05-14T03:27:09;15.60;77.30
9919;DHT22;4998;51.024;13.828;2023-05-14T03:29:36;15.60;77.60
9919;DHT22;4998;51.024;13.828;2023-05-14T03:32:04;15.50;78.40
9919;DHT22;4998;51.024;13.828;2023-05-14T03:34:31;15.50;77.60
9919;DHT22;4998;51.024;13.828;2023-05-14T03:36:59;15.50;77.50
9919;DHT22;4998;51.024;13.828;2023-05-14T03:39:26;15.50;77.70
9919;DHT22;4998;51.024;13.828;2023-05-14T03:41:53;15.40;77.50
9919;DHT22;4998;51.024;13.828;2023-05-14T03:44:21;15.40;77.60
9919;DHT22;4998;51.024;13.828;2023-05-14T03:46:48;15.40;77.80
9919;DHT22;4998;51.024;13.828;2023-05-14T03:49:15;15.40;78.20
9919;DHT22;4998;51.024;13.828;2023-05-14T03:51:42;15.30;78.40
9919;DHT22;4998;51.024;13.828;2023-05-14T03:54:11;15.30;78.60
9919;DHT22;4998;51.024;13.828;2023-05-14T03:56:38;15.30;78.80
9919;DHT22;4998;51.024;13.828;2023-05-14T03:59:05;15.30;78.80
9919;DHT22;4998;51.024;13.828;2023-05-14T04:01:32;15.30;78.90
9919;DHT22;4998;51.024;13.828;2023-05-14T04:03:59;15.30;79.00
9919;DHT22;4998;51.024;13.828;2023-05-14T04:06:26;15.30;79.20
9919;DHT22;4998;51.024;13.828;2023-05-14T04:08:53;15.30;79.30
9919;DHT22;4998;51.024;13.828;2023-05-14T04:11:21;15.30;79.40
9919;DHT22;4998;51.024;13.828;2023-05-14T04:13:48;15.30;79.70
9919;DHT22;4998;51.024;13.828;2023-05-14T04:16:15;15.40;79.70
9919;DHT22;4998;51.024;13.828;2023-05-14T04:18:42;15.40;79.80
9919;DHT22;4998;51.024;13.828;2023-05-14T04:21:09;15.40;79.90
9919;DHT22;4998;51.024;13.828;2023-05-14T04:23:36;15.40;80.00
9919;DHT22;4998;51.024;13.828;2023-05-14T04:26:03;15.40;80.00
9919;DHT22;4998;51.024;13.828;2023-05-14T04:28:32;15.40;79.90
9919;DHT22;4998;51.024;13.828;2023-05-14T04:30:59;15.40;80.10
9919;DHT22;4998;51.024;13.828;2023-05-14T04:33:26;15.40;80.00
9919;DHT22;4998;51.024;13.828;2023-05-14T04:35:53;15.40;80.10
9919;DHT22;4998;51.024;13.828;2023-05-14T04:38:20;15.50;80.20
9919;DHT22;4998;51.024;13.828;2023-05-14T04:40:47;15.50;80.30
9919;DHT22;4998;51.024;13.828;2023-05-14T04:43:14;15.60;80.50
9919;DHT22;4998;51.024;13.828;2023-05-14T04:45:43;15.60;80.50
9919;DHT22;4998;51.024;13.828;2023-05-14T04:48:10;15.60;80.70
9919;DHT22;4998;51.024;13.828;2023-05-14T04:50:37;15.70;80.80
9919;DHT22;4998;51.024;13.828;2023-05-14T04:53:04;15.80;81.10
9919;DHT22;4998;51.024;13.828;2023-05-14T04:55:31;15.90;81.20
9919;DHT22;4998;51.024;13.828;2023-05-14T04:57:58;16.00;81.20
9919;DHT22;4998;51.024;13.828;2023-05-14T05:00:25;16.10;81.00
9919;DHT22;4998;51.024;13.828;2023-05-14T05:02:54;16.20;80.90
9919;DHT22;4998;51.024;13.828;2023-05-14T05:05:22;16.30;80.90
9919;DHT22;4998;51.024;13.828;2023-05-14T05:07:49;16.40;80.80
9919;DHT22;4998;51.024;13.828;2023-05-14T05:10:16;16.50;80.70
9919;DHT22;4998;51.024;13.828;2023-05-14T05:12:43;16.60;80.70
9919;DHT22;4998;51.024;13.828;2023-05-14T05:15:10;16.70;80.60
9919;DHT22;4998;51.024;13.828;2023-05-14T05:17:37;16.80;80.30
9919;DHT22;4998;51.024;13.828;2023-05-14T05:20:07;17.00;80.20
9919;DHT22;4998;51.024;13.828;2023-05-14T05:22:34;17.20;80.00
9919;DHT22;4998;51.024;13.828;2023-05-14T05:25:02;17.30;79.60
9919;DHT22;4998;51.024;13.828;2023-05-14T05:27:31;17.50;79.30
9919;DHT22;4998;51.024;13.828;2023-05-14T05:29:59;17.60;79.00
9919;DHT22;4998;51.024;13.828;2023-05-14T05:32:26;17.80;78.80
9919;DHT22;4998;51.024;13.828;2023-05-14T05:34:53;17.90;78.40
9919;DHT22;4998;51.024;13.828;2023-05-14T05:37:21;18.00;77.80
9919;DHT22;4998;51.024;13.828;2023-05-14T05:39:48;18.20;77.20
9919;DHT22;4998;51.024;13.828;2023-05-14T05:42:15;18.30;76.70
9919;DHT22;4998;51.024;13.828;2023-05-14T05:44:42;18.40;76.40
9919;DHT22;4998;51.024;13.828;2023-05-14T05:47:09;18.40;76.10
9919;DHT22;4998;51.024;13.828;2023-05-14T05:49:36;18.50;75.90
9919;DHT22;4998;51.024;13.828;2023-05-14T05:52:04;18.60;75.90
9919;DHT22;4998;51.024;13.828;2023-05-14T05:54:32;18.70;75.80
9919;DHT22;4998;51.024;13.828;2023-05-14T05:56:59;18.80;75.60
9919;DHT22;4998;51.024;13.828;2023-05-14T05:59:26;19.00;75.50
9919;DHT22;4998;51.024;13.828;2023-05-14T06:01:53;19.10;75.40
9919;DHT22;4998;51.024;13.828;2023-05-14T06:04:20;19.20;75.00
9919;DHT22;4998;51.024;13.828;2023-05-14T06:06:47;19.30;74.60
9919;DHT22;4998;51.024;13.828;2023-05-14T06:09:14;19.50;74.10
9919;DHT22;4998;51.024;13.828;2023-05-14T06:11:43;19.60;73.90
9919;DHT22;4998;51.024;13.828;2023-05-14T06:14:10;19.70;73.20
9919;DHT22;4998;51.024;13.828;2023-05-14T06:16:37;19.90;73.10
9919;DHT22;4998;51.024;13.828;2023-05-14T06:19:04;20.00;72.90
9919;DHT22;4998;51.024;13.828;2023-05-14T06:21:31;20.10;72.50
9919;DHT22;4998;51.024;13.828;2023-05-14T06:23:58;20.30;72.10
9919;DHT22;4998;51.024;13.828;2023-05-14T06:26:25;20.40;71.70
9919;DHT22;4998;51.024;13.828;2023-05-14T06:28:53;20.50;71.20
9919;DHT22;4998;51.024;13.828;2023-05-14T06:31:20;20.60;70.20
9919;DHT22;4998;51.024;13.828;2023-05-14T06:33:47;20.70;69.70
9919;DHT22;4998;51.024;13.828;2023-05-14T06:36:14;20.80;69.30
9919;DHT22;4998;51.024;13.828;2023-05-14T06:38:41;20.90;69.10
9919;DHT22;4998;51.024;13.828;2023-05-14T06:41:08;21.00;68.90
9919;DHT22;4998;51.024;13.828;2023-05-14T06:43:35;21.10;68.80
9919;DHT22;4998;51.024;13.828;2023-05-14T06:46:03;21.20;68.70
9919;DHT22;4998;51.024;13.828;2023-05-14T06:48:30;21.20;68.00
9919;DHT22;4998;51.024;13.828;2023-05-14T06:50:57;21.40;68.10
9919;DHT22;4998;51.024;13.828;2023-05-14T06:53:24;21.50;68.00
9919;DHT22;4998;51.024;13.828;2023-05-14T06:55:51;21.60;67.40
9919;DHT22;4998;51.024;13.828;2023-05-14T06:58:18;21.60;66.50
9919;DHT22;4998;51.024;13.828;2023-05-14T07:00:45;21.70;65.70
9919;DHT22;4998;51.024;13.828;2023-05-14T07:03:13;21.80;65.40
9919;DHT22;4998;51.024;13.828;2023-05-14T07:05:40;21.80;64.50
9919;DHT22;4998;51.024;13.828;2023-05-14T07:08:09;21.90;65.00
9919;DHT22;4998;51.024;13.828;2023-05-14T07:10:36;21.90;64.60
9919;DHT22;4998;51.024;13.828;2023-05-14T07:13:03;21.90;64.30
9919;DHT22;4998;51.024;13.828;2023-05-14T07:15:30;22.00;64.80
9919;DHT22;4998;51.024;13.828;2023-05-14T07:17:57;22.00;64.00
9919;DHT22;4998;51.024;13.828;2023-05-14T07:20:26;22.10;63.90
9919;DHT22;4998;51.024;13.828;2023-05-14T07:22:53;22.10;63.80
9919;DHT22;4998;51.024;13.828;2023-05-14T07:25:20;22.20;63.90
9919;DHT22;4998;51.024;13.828;2023-05-14T07:27:47;22.20;64.10
9919;DHT22;4998;51.024;13.828;2023-05-14T07:30:14;22.30;64.20
9919;DHT22;4998;51.024;13.828;2023-05-14T07:32:41;22.40;64.10
9919;DHT22;4998;51.024;13.828;2023-05-14T07:35:08;22.40;63.50
9919;DHT22;4998;51.024;13.828;2023-05-14T07:37:37;22.50;62.70
9919;DHT22;4998;51.024;13.828;2023-05-14T07:40:06;22.60;61.60
9919;DHT22;4998;51.024;13.828;2023-05-14T07:42:33;22.70;61.70
9919;DHT22;4998;51.024;13.828;2023-05-14T07:45:00;22.70;60.70
9919;DHT22;4998;51.024;13.828;2023-05-14T07:47:27;22.70;60.20
9919;DHT22;4998;51.024;13.828;2023-05-14T07:49:54;22.70;60.10
9919;DHT22;4998;51.024;13.828;2023-05-14T07:52:21;22.70;59.90
9919;DHT22;4998;51.024;13.828;2023-05-14T07:54:50;22.70;60.00
9919;DHT22;4998;51.024;13.828;2023-05-14T07:57:17;22.70;59.60
9919;DHT22;4998;51.024;13.828;2023-05-14T07:59:46;22.70;59.70
9919;DHT22;4998;51.024;13.828;2023-05-14T08:02:13;22.70;59.70
9919;DHT22;4998;51.024;13.828;2023-05-14T08:04:40;22.70;59.30
9919;DHT22;4998;51.024;13.828;2023-05-14T08:07:08;22.70;60.00
9919;DHT22;4998;51.024;13.828;2023-05-14T08:09:35;22.70;59.00
9919;DHT22;4998;51.024;13.828;2023-05-14T08:12:04;22.70;58.60
9919;DHT22;4998;51.024;13.828;2023-05-14T08:14:32;22.70;58.20
9919;DHT22;4998;51.024;13.828;2023-05-14T08:16:59;22.70;58.40
9919;DHT22;4998;51.024;13.828;2023-05-14T08:19:26;22.70;58.30
9919;DHT22;4998;51.024;13.828;2023-05-14T08:21:53;22.60;58.20
9919;DHT22;4998;51.024;13.828;2023-05-14T08:24:20;22.60;58.20
9919;DHT22;4998;51.024;13.828;2023-05-14T08:26:47;22.60;58.20
9919;DHT22;4998;51.024;13.828;2023-05-14T08:29:15;22.60;58.20
9919;DHT22;4998;51.024;13.828;2023-05-14T08:31:42;22.60;58.20
9919;DHT22;4998;51.024;13.828;2023-05-14T08:34:09;22.60;58.30
9919;DHT22;4998;51.024;13.828;2023-05-14T08:36:37;22.60;58.30
9919;DHT22;4998;51.024;13.828;2023-05-14T08:39:04;22.50;58.00
9919;DHT22;4998;51.024;13.828;2023-05-14T08:41:32;22.50;58.00
9919;DHT22;4998;51.024;13.828;2023-05-14T08:44:05;22.50;58.10
9919;DHT22;4998;51.024;13.828;2023-05-14T08:46:35;22.50;57.90
9919;DHT22;4998;51.024;13.828;2023-05-14T08:49:14;22.50;58.00
9919;DHT22;4998;51.024;13.828;2023-05-14T08:51:42;22.40;57.50
9919;DHT22;4998;51.024;13.828;2023-05-14T08:54:12;22.40;57.50
9919;DHT22;4998;51.024;13.828;2023-05-14T08:56:43;22.30;57.50
9919;DHT22;4998;51.024;13.828;2023-05-14T08:59:10;22.30;57.30
9919;DHT22;4998;51.024;13.828;2023-05-14T09:01:42;22.30;57.60
9919;DHT22;4998;51.024;13.828;2023-05-14T09:04:11;22.20;57.40
9919;DHT22;4998;51.024;13.828;2023-05-14T09:06:39;22.20;57.50
9919;DHT22;4998;51.024;13.828;2023-05-14T09:09:08;22.20;57.60
9919;DHT22;4998;51.024;13.828;2023-05-14T09:11:40;22.20;57.50
9919;DHT22;4998;51.024;13.828;2023-05-14T09:14:07;22.10;57.40
9919;DHT22;4998;51.024;13.828;2023-05-14T09:16:34;22.10;58.20
9919;DHT22;4998;51.024;13.828;2023-05-14T09:19:03;22.10;57.40
9919;DHT22;4998;51.024;13.828;2023-05-14T09:21:31;22.10;57.50
9919;DHT22;4998;51.024;13.828;2023-05-14T09:23:58;22.10;57.50
9919;DHT22;4998;51.024;13.828;2023-05-14T09:26:26;22.10;57.50
9919;DHT22;4998;51.024;13.828;2023-05-14T09:28:53;22.10;57.50
9919;DHT22;4998;51.024;13.828;2023-05-14T09:31:21;22.20;57.50
9919;DHT22;4998;51.024;13.828;2023-05-14T09:33:52;22.20;57.40
9919;DHT22;4998;51.024;13.828;2023-05-14T09:36:20;22.20;56.90
9919;DHT22;4998;51.024;13.828;2023-05-14T09:38:47;22.20;56.70
9919;DHT22;4998;51.024;13.828;2023-05-14T09:41:14;22.30;56.60
9919;DHT22;4998;51.024;13.828;2023-05-14T09:43:41;22.30;56.60
9919;DHT22;4998;51.024;13.828;2023-05-14T09:46:09;22.30;56.50
9919;DHT22;4998;51.024;13.828;2023-05-14T09:48:36;22.30;56.70
9919;DHT22;4998;51.024;13.828;2023-05-14T09:51:04;22.30;56.60
9919;DHT22;4998;51.024;13.828;2023-05-14T09:53:33;22.40;56.70
9919;DHT22;4998;51.024;13.828;2023-05-14T09:56:00;22.40;56.50
9919;DHT22;4998;51.024;13.828;2023-05-14T09:58:27;22.50;56.50
9919;DHT22;4998;51.024;13.828;2023-05-14T10:00:56;22.60;56.30
9919;DHT22;4998;51.024;13.828;2023-05-14T10:03:24;22.60;56.40
9919;DHT22;4998;51.024;13.828;2023-05-14T10:05:52;22.70;56.30
9919;DHT22;4998;51.024;13.828;2023-05-14T10:08:24;22.80;56.20
9919;DHT22;4998;51.024;13.828;2023-05-14T10:10:54;22.80;56.80
9919;DHT22;4998;51.024;13.828;2023-05-14T10:13:23;22.90;55.90
9919;DHT22;4998;51.024;13.828;2023-05-14T10:15:59;23.00;55.60
9919;DHT22;4998;51.024;13.828;2023-05-14T10:18:30;23.10;55.00
9919;DHT22;4998;51.024;13.828;2023-05-14T10:21:03;23.00;54.80
9919;DHT22;4998;51.024;13.828;2023-05-14T10:23:31;23.10;54.80
9919;DHT22;4998;51.024;13.828;2023-05-14T10:26:00;23.00;54.80
9919;DHT22;4998;51.024;13.828;2023-05-14T10:28:27;23.10;54.60
9919;DHT22;4998;51.024;13.828;2023-05-14T10:30:55;23.10;54.60
9919;DHT22;4998;51.024;13.828;2023-05-14T10:33:22;23.00;54.40
9919;DHT22;4998;51.024;13.828;2023-05-14T10:35:56;23.00;54.50
9919;DHT22;4998;51.024;13.828;2023-05-14T10:38:26;23.00;54.20
9919;DHT22;4998;51.024;13.828;2023-05-14T10:41:00;22.90;54.20
9919;DHT22;4998;51.024;13.828;2023-05-14T10:43:28;22.90;54.00
9919;DHT22;4998;51.024;13.828;2023-05-14T10:45:56;22.80;54.20
9919;DHT22;4998;51.024;13.828;2023-05-14T10:48:24;22.80;53.90
9919;DHT22;4998;51.024;13.828;2023-05-14T10:50:51;22.80;53.90
9919;DHT22;4998;51.024;13.828;2023-05-14T10:53:19;22.80;53.80
9919;DHT22;4998;51.024;13.828;2023-05-14T10:55:46;22.80;53.60
9919;DHT22;4998;51.024;13.828;2023-05-14T10:58:15;22.70;53.30
9919;DHT22;4998;51.024;13.828;2023-05-14T11:00:46;22.70;53.40
9919;DHT22;4998;51.024;13.828;2023-05-14T11:03:14;22.70;53.50
9919;DHT22;4998;51.024;13.828;2023-05-14T11:05:43;22.70;53.50
9919;DHT22;4998;51.024;13.828;2023-05-14T11:08:11;22.70;53.50
9919;DHT22;4998;51.024;13.828;2023-05-14T11:10:38;22.70;53.50
9919;DHT22;4998;51.024;13.828;2023-05-14T11:13:06;22.70;53.40
9919;DHT22;4998;51.024;13.828;2023-05-14T11:15:35;22.80;53.60
9919;DHT22;4998;51.024;13.828;2023-05-14T11:18:04;22.80;53.30
9919;DHT22;4998;51.024;13.828;2023-05-14T11:20:32;22.80;53.40
9919;DHT22;4998;51.024;13.828;2023-05-14T11:23:01;22.90;53.60
9919;DHT22;4998;51.024;13.828;2023-05-14T11:25:28;22.90;53.50
9919;DHT22;4998;51.024;13.828;2023-05-14T11:27:55;23.00;53.40
9919;DHT22;4998;51.024;13.828;2023-05-14T11:30:25;23.10;53.60
9919;DHT22;4998;51.024;13.828;2023-05-14T11:32:55;23.20;53.70
9919;DHT22;4998;51.024;13.828;2023-05-14T11:35:22;23.10;53.60
9919;DHT22;4998;51.024;13.828;2023-05-14T11:37:50;23.40;53.80
9919;DHT22;4998;51.024;13.828;2023-05-14T11:40:18;23.50;53.80
9919;DHT22;4998;51.024;13.828;2023-05-14T11:42:45;23.60;53.50
9919;DHT22;4998;51.024;13.828;2023-05-14T11:45:12;23.70;52.80
9919;DHT22;4998;51.024;13.828;2023-05-14T11:47:40;23.80;52.30
9919;DHT22;4998;51.024;13.828;2023-05-14T11:50:09;23.90;52.10
9919;DHT22;4998;51.024;13.828;2023-05-14T11:52:38;23.90;51.80
9919;DHT22;4998;51.024;13.828;2023-05-14T11:55:09;24.00;51.60
9919;DHT22;4998;51.024;13.828;2023-05-14T11:57:37;24.00;51.40
9919;DHT22;4998;51.024;13.828;2023-05-14T12:00:07;24.00;51.60
9919;DHT22;4998;51.024;13.828;2023-05-14T12:02:35;24.10;51.60
9919;DHT22;4998;51.024;13.828;2023-05-14T12:05:04;24.10;51.30
9919;DHT22;4998;51.024;13.828;2023-05-14T12:07:36;24.20;51.10
9919;DHT22;4998;51.024;13.828;2023-05-14T12:10:05;24.20;51.10
9919;DHT22;4998;51.024;13.828;2023-05-14T12:12:34;24.30;51.10
9919;DHT22;4998;51.024;13.828;2023-05-14T12:15:09;24.30;50.70
9919;DHT22;4998;51.024;13.828;2023-05-14T12:17:37;24.30;50.30
9919;DHT22;4998;51.024;13.828;2023-05-14T12:20:07;24.30;50.50
9919;DHT22;4998;51.024;13.828;2023-05-14T12:22:38;24.40;49.90
9919;DHT22;4998;51.024;13.828;2023-05-14T12:25:10;24.40;49.70
9919;DHT22;4998;51.024;13.828;2023-05-14T12:27:38;24.40;49.50
9919;DHT22;4998;51.024;13.828;2023-05-14T12:30:07;24.40;49.60
9919;DHT22;4998;51.024;13.828;2023-05-14T12:32:34;24.50;49.70
9919;DHT22;4998;51.024;13.828;2023-05-14T12:35:01;24.50;49.70
9919;DHT22;4998;51.024;13.828;2023-05-14T12:37:29;24.50;49.60
9919;DHT22;4998;51.024;13.828;2023-05-14T12:39:57;24.60;49.50
9919;DHT22;4998;51.024;13.828;2023-05-14T12:42:24;24.60;49.20
9919;DHT22;4998;51.024;13.828;2023-05-14T12:44:51;24.60;48.80
9919;DHT22;4998;51.024;13.828;2023-05-14T12:47:18;24.60;48.50
9919;DHT22;4998;51.024;13.828;2023-05-14T12:49:45;24.60;48.30
9919;DHT22;4998;51.024;13.828;2023-05-14T12:52:12;24.60;48.30
9919;DHT22;4998;51.024;13.828;2023-05-14T12:54:39;24.60;48.30
9919;DHT22;4998;51.024;13.828;2023-05-14T12:57:09;24.60;48.10
9919;DHT22;4998;51.024;13.828;2023-05-14T12:59:36;24.60;47.60
9919;DHT22;4998;51.024;13.828;2023-05-14T13:02:03;24.60;47.70
9919;DHT22;4998;51.024;13.828;2023-05-14T13:04:30;24.60;47.60
9919;DHT22;4998;51.024;13.828;2023-05-14T13:06:57;24.60;47.80
9919;DHT22;4998;51.024;13.828;2023-05-14T13:09:24;24.60;47.70
9919;DHT22;4998;51.024;13.828;2023-05-14T13:11:52;24.60;47.60
9919;DHT22;4998;51.024;13.828;2023-05-14T13:14:20;24.60;47.60
9919;DHT22;4998;51.024;13.828;2023-05-14T13:16:47;24.70;47.40
9919;DHT22;4998;51.024;13.828;2023-05-14T13:19:15;24.60;47.30
9919;DHT22;4998;51.024;13.828;2023-05-14T13:21:41;24.60;47.20
9919;DHT22;4998;51.024;13.828;2023-05-14T13:24:09;24.60;47.20
9919;DHT22;4998;51.024;13.828;2023-05-14T13:26:36;24.60;46.80
9919;DHT22;4998;51.024;13.828;2023-05-14T13:29:03;24.60;47.10
9919;DHT22;4998;51.024;13.828;2023-05-14T13:31:31;24.50;46.80
9919;DHT22;4998;51.024;13.828;2023-05-14T13:33:58;24.50;46.90
9919;DHT22;4998;51.024;13.828;2023-05-14T13:36:27;24.40;46.90
9919;DHT22;4998;51.024;13.828;2023-05-14T13:38:55;24.30;47.00
9919;DHT22;4998;51.024;13.828;2023-05-14T13:41:24;24.30;47.20
9919;DHT22;4998;51.024;13.828;2023-05-14T13:43:51;24.20;47.10
9919;DHT22;4998;51.024;13.828;2023-05-14T13:46:18;24.10;47.10
9919;DHT22;4998;51.024;13.828;2023-05-14T13:48:47;24.00;47.70
9919;DHT22;4998;51.024;13.828;2023-05-14T13:51:14;24.00;47.20
9919;DHT22;4998;51.024;13.828;2023-05-14T13:53:41;23.90;47.40
9919;DHT22;4998;51.024;13.828;2023-05-14T13:56:08;23.80;47.40
9919;DHT22;4998;51.024;13.828;2023-05-14T13:58:35;23.80;47.60
9919;DHT22;4998;51.024;13.828;2023-05-14T14:01:02;23.80;47.70
9919;DHT22;4998;51.024;13.828;2023-05-14T14:03:29;23.80;47.60
9919;DHT22;4998;51.024;13.828;2023-05-14T14:05:57;23.70;47.40
9919;DHT22;4998;51.024;13.828;2023-05-14T14:08:24;23.70;47.40
9919;DHT22;4998;51.024;13.828;2023-05-14T14:10:51;23.70;47.40
9919;DHT22;4998;51.024;13.828;2023-05-14T14:13:19;23.70;47.40
9919;DHT22;4998;51.024;13.828;2023-05-14T14:15:47;23.70;47.60
9919;DHT22;4998;51.024;13.828;2023-05-14T14:18:14;23.70;47.60
9919;DHT22;4998;51.024;13.828;2023-05-14T14:20:41;23.60;47.50
9919;DHT22;4998;51.024;13.828;2023-05-14T14:23:09;23.60;47.70
9919;DHT22;4998;51.024;13.828;2023-05-14T14:25:36;23.60;47.60
9919;DHT22;4998;51.024;13.828;2023-05-14T14:28:04;23.60;47.60
9919;DHT22;4998;51.024;13.828;2023-05-14T14:30:31;23.60;47.50
9919;DHT22;4998;51.024;13.828;2023-05-14T14:32:59;23.60;47.50
9919;DHT22;4998;51.024;13.828;2023-05-14T14:35:26;23.60;47.40
9919;DHT22;4998;51.024;13.828;2023-05-14T14:37:53;23.50;47.40
9919;DHT22;4998;51.024;13.828;2023-05-14T14:40:21;23.50;47.30
9919;DHT22;4998;51.024;13.828;2023-05-14T14:42:51;23.50;47.30
9919;DHT22;4998;51.024;13.828;2023-05-14T14:45:18;23.40;47.30
9919;DHT22;4998;51.024;13.828;2023-05-14T14:47:45;23.40;47.40
9919;DHT22;4998;51.024;13.828;2023-05-14T14:50:13;23.40;47.30
9919;DHT22;4998;51.024;13.828;2023-05-14T14:52:40;23.30;47.20
9919;DHT22;4998;51.024;13.828;2023-05-14T14:55:08;23.30;47.10
9919;DHT22;4998;51.024;13.828;2023-05-14T14:57:37;23.30;47.00
9919;DHT22;4998;51.024;13.828;2023-05-14T15:00:05;23.30;47.00
9919;DHT22;4998;51.024;13.828;2023-05-14T15:02:32;23.30;47.10
9919;DHT22;4998;51.024;13.828;2023-05-14T15:04:59;23.20;47.20
9919;DHT22;4998;51.024;13.828;2023-05-14T15:07:26;23.20;47.30
9919;DHT22;4998;51.024;13.828;2023-05-14T15:09:57;23.20;47.30
9919;DHT22;4998;51.024;13.828;2023-05-14T15:12:24;23.10;47.30
9919;DHT22;4998;51.024;13.828;2023-05-14T15:14:52;23.10;47.40
9919;DHT22;4998;51.024;13.828;2023-05-14T15:17:19;23.10;47.40
9919;DHT22;4998;51.024;13.828;2023-05-14T15:19:46;23.10;47.50
9919;DHT22;4998;51.024;13.828;2023-05-14T15:22:13;23.10;47.50
9919;DHT22;4998;51.024;13.828;2023-05-14T15:24:40;23.10;47.50
9919;DHT22;4998;51.024;13.828;2023-05-14T15:27:07;23.10;47.40
9919;DHT22;4998;51.024;13.828;2023-05-14T15:29:34;23.10;47.50
9919;DHT22;4998;51.024;13.828;2023-05-14T15:32:03;23.10;47.50
9919;DHT22;4998;51.024;13.828;2023-05-14T15:34:30;23.10;47.70
9919;DHT22;4998;51.024;13.828;2023-05-14T15:36:57;23.10;47.80
9919;DHT22;4998;51.024;13.828;2023-05-14T15:39:24;23.10;47.80
9919;DHT22;4998;51.024;13.828;2023-05-14T15:41:51;23.10;47.80
9919;DHT22;4998;51.024;13.828;2023-05-14T15:44:18;23.10;47.70
9919;DHT22;4998;51.024;13.828;2023-05-14T15:46:45;23.20;47.70
9919;DHT22;4998;51.024;13.828;2023-05-14T15:49:13;23.20;47.70